createdAt,value
2018-11-22T12:17:12.694Z,23.97
2018-11-22T12:21:15.082Z,25.33
2018-11-22T12:25:25.762Z,25.70
2018-11-22T12:29:29.053Z,23.63
2018-11-22T12:33:38.104Z,25.57
2018-11-22T12:37:43.329Z,24.27
2018-11-22T12:41:44.164Z,23.93
2018-11-22T12:45:46.516Z,21.53
2018-11-22T12:49:49.013Z,22.77
2018-11-22T12:53:51.510Z,23.43
2018-11-22T12:57:53.893Z,21.63
2018-11-22T13:01:56.240Z,23.07
2018-11-22T13:05:58.655Z,22.07
2018-11-22T13:10:01.028Z,23.03
2018-11-22T13:14:03.580Z,23.27
2018-11-22T13:18:06.123Z,21.17
2018-11-22T13:22:08.889Z,21.23
2018-11-22T13:26:11.518Z,22.27
2018-11-22T13:30:23.158Z,24.33
2018-11-22T13:34:25.639Z,25.10
2018-11-22T13:38:28.153Z,24.67
2018-11-22T13:42:30.618Z,21.50
2018-11-22T13:46:33.574Z,22.33
2018-11-22T13:50:41.972Z,22.30
2018-11-22T13:54:38.482Z,24.13
2018-11-22T13:58:40.984Z,22.97
2018-11-22T14:02:43.755Z,22.97
2018-11-22T14:06:46.257Z,24.37
2018-11-22T14:10:48.638Z,25.03
2018-11-22T14:14:51.024Z,22.47
2018-11-22T14:18:53.634Z,24.40
2018-11-22T14:22:56.245Z,23.37
2018-11-22T14:26:58.837Z,21.80
2018-11-22T14:31:01.313Z,22.53
2018-11-22T14:35:04.402Z,23.03
2018-11-22T14:39:07.185Z,22.37
2018-11-22T14:43:09.743Z,24.13
2018-11-22T14:47:12.177Z,24.73
2018-11-22T14:51:24.348Z,22.60
2018-11-22T14:55:30.603Z,23.17
2018-11-22T14:59:34.912Z,26.47
2018-11-22T15:03:44.504Z,25.00
2018-11-22T15:07:54.820Z,21.70
2018-11-22T15:12:05.177Z,23.53
2018-11-22T15:16:16.444Z,25.03
2018-11-22T15:20:20.643Z,22.47
2018-11-22T15:24:23.138Z,26.37
2018-11-22T15:28:25.573Z,24.87
2018-11-22T15:32:28.024Z,25.20
2018-11-22T15:36:31.019Z,23.90
2018-11-22T15:40:39.449Z,24.93
2018-11-22T15:44:41.882Z,25.93
2018-11-22T15:48:44.298Z,25.27
2018-11-22T15:52:47.673Z,24.17
2018-11-22T15:56:50.110Z,25.27
2018-11-22T16:00:53.310Z,31.80
2018-11-22T16:04:55.680Z,25.87
2018-11-22T16:08:58.213Z,26.27
2018-11-22T16:13:03.117Z,26.13
2018-11-22T16:17:06.242Z,29.20
2018-11-22T16:21:08.687Z,29.50
2018-11-22T16:25:12.757Z,31.37
2018-11-22T16:29:15.117Z,28.17
2018-11-22T16:33:17.512Z,27.30
2018-11-22T16:37:19.948Z,28.63
2018-11-22T16:41:22.601Z,29.07
2018-11-22T16:45:27.259Z,30.47
2018-11-22T16:49:29.647Z,28.47
2018-11-22T16:53:32.125Z,28.60
2018-11-22T16:57:34.632Z,31.77
2018-11-22T17:01:37.065Z,30.17
2018-11-22T17:05:39.999Z,32.40
2018-11-22T17:09:42.349Z,30.70
2018-11-22T17:13:44.769Z,28.43
2018-11-22T17:17:47.751Z,28.13
2018-11-22T17:21:50.132Z,30.87
2018-11-22T17:25:52.541Z,28.90
2018-11-22T17:29:54.936Z,31.10
2018-11-22T17:33:57.342Z,31.90
2018-11-22T17:38:00.756Z,29.67
2018-11-22T17:42:03.231Z,30.77
2018-11-22T17:46:06.167Z,33.03
2018-11-22T17:50:11.077Z,30.33
2018-11-22T17:54:13.684Z,28.63
2018-11-22T17:58:16.436Z,30.87
2018-11-22T18:02:18.896Z,29.93
2018-11-22T18:06:21.860Z,31.37
2018-11-22T18:10:27.831Z,33.40
2018-11-22T18:14:30.215Z,28.57
2018-11-22T18:18:32.620Z,27.13
2018-11-22T18:22:35.173Z,27.70
2018-11-22T18:26:37.593Z,28.20
2018-11-22T18:30:39.920Z,27.90
2018-11-22T18:34:42.379Z,29.57
2018-11-22T18:38:44.845Z,27.30
2018-11-22T18:42:48.343Z,31.90
2018-11-22T18:46:50.915Z,32.33
2018-11-22T18:50:53.399Z,30.63
2018-11-22T18:54:55.866Z,30.80
2018-11-22T18:58:58.217Z,34.40
2018-11-22T19:03:02.257Z,40.30
2018-11-22T19:07:05.179Z,44.10
2018-11-22T19:11:07.623Z,37.53
2018-11-22T19:15:12.294Z,37.07
2018-11-22T19:19:14.670Z,37.13
2018-11-22T19:23:17.211Z,36.57
2018-11-22T19:27:19.854Z,44.23
2018-11-22T19:31:22.348Z,30.77
2018-11-22T19:35:27.074Z,30.57
2018-11-22T19:39:29.759Z,30.67
2018-11-22T19:43:32.446Z,32.07
2018-11-22T19:47:34.848Z,29.97
2018-11-22T19:51:37.453Z,29.57
2018-11-22T19:55:40.342Z,31.00
2018-11-22T19:59:42.990Z,28.63
2018-11-22T20:03:45.741Z,32.23
2018-11-22T20:07:50.084Z,30.57
2018-11-22T20:11:52.496Z,29.93
2018-11-22T20:15:55.195Z,32.98
2018-11-22T20:19:57.778Z,29.37
2018-11-22T20:24:00.401Z,27.80
2018-11-22T20:28:03.101Z,28.00
2018-11-22T20:32:05.803Z,31.10
2018-11-22T20:36:08.430Z,32.17
2018-11-22T20:40:12.350Z,31.93
2018-11-22T20:44:14.710Z,30.77
2018-11-22T20:48:17.404Z,29.60
2018-11-22T20:52:19.869Z,31.03
2018-11-22T20:56:22.227Z,34.63
2018-11-22T21:00:26.196Z,27.33
2018-11-22T21:04:29.056Z,28.50
2018-11-22T21:08:31.714Z,28.87
2018-11-22T21:12:34.420Z,26.10
2018-11-22T21:16:37.387Z,27.63
2018-11-22T21:20:40.882Z,30.20
2018-11-22T21:24:43.263Z,31.93
2018-11-22T21:28:45.985Z,32.40
2018-11-22T21:32:49.379Z,32.73
2018-11-22T21:36:51.989Z,32.00
2018-11-22T21:40:54.593Z,31.73
2018-11-22T21:44:57.016Z,29.03
2018-11-22T21:49:01.493Z,29.43
2018-11-22T21:53:03.943Z,31.23
2018-11-22T21:57:06.363Z,30.10
2018-11-22T22:01:09.544Z,30.23
2018-11-22T22:05:11.931Z,30.33
2018-11-22T22:09:14.372Z,32.37
2018-11-22T22:13:16.813Z,30.33
2018-11-22T22:17:19.288Z,29.90
2018-11-22T22:21:21.706Z,29.10
2018-11-22T22:25:25.023Z,31.23
2018-11-22T22:29:28.343Z,32.07
2018-11-22T22:33:30.782Z,31.10
2018-11-22T22:37:33.212Z,31.17
2018-11-22T22:41:35.681Z,33.67
2018-11-22T22:45:38.843Z,35.33
2018-11-22T22:49:41.377Z,34.03
2018-11-22T22:53:43.822Z,35.57
2018-11-22T22:57:46.324Z,35.47
2018-11-22T23:01:49.223Z,36.97
2018-11-22T23:05:51.610Z,36.07
2018-11-22T23:09:53.928Z,39.00
2018-11-22T23:13:56.419Z,39.33
2018-11-22T23:17:58.759Z,39.07
2018-11-22T23:22:01.140Z,38.17
2018-11-22T23:26:03.603Z,40.23
2018-11-22T23:30:09.646Z,37.93
2018-11-22T23:34:12.053Z,39.70
2018-11-22T23:38:15.150Z,40.30
2018-11-22T23:42:17.564Z,37.87
2018-11-22T23:46:20.747Z,37.60
2018-11-22T23:50:24.737Z,35.00
2018-11-22T23:54:27.287Z,35.07
2018-11-22T23:58:29.647Z,34.07
